sensor_id;sensor_type;location;lat;lon;timestamp;P1;durP1;ratioP1;P2;durP2;ratioP2
52956;SDS011;38819;42.692;23.342;2023-03-14T00:00:55;11.90;;;6.10;;
52956;SDS011;38819;42.692;23.342;2023-03-14T00:03:21;8.98;;;6.07;;
52956;SDS011;38819;42.692;23.342;2023-03-14T00:05:46;7.18;;;5.85;;
52956;SDS011;38819;42.692;23.342;2023-03-14T00:08:12;11.88;;;7.20;;
52956;SDS011;38819;42.692;23.342;2023-03-14T00:10:37;8.60;;;6.20;;
52956;SDS011;38819;42.692;23.342;2023-03-14T00:13:03;10.63;;;6.20;;
52956;SDS011;38819;42.692;23.342;2023-03-14T00:15:29;12.32;;;7.88;;
52956;SDS011;38819;42.692;23.342;2023-03-14T00:17:54;14.57;;;8.65;;
52956;SDS011;38819;42.692;23.342;2023-03-14T00:20:20;15.27;;;8.73;;
52956;SDS011;38819;42.692;23.342;2023-03-14T00:22:45;17.10;;;8.68;;
52956;SDS011;38819;42.692;23.342;2023-03-14T00:25:11;14.10;;;9.63;;
52956;SDS011;38819;42.692;23.342;2023-03-14T00:27:37;14.40;;;8.95;;
52956;SDS011;38819;42.692;23.342;2023-03-14T00:30:03;11.95;;;8.43;;
52956;SDS011;38819;42.692;23.342;2023-03-14T00:32:30;15.85;;;9.07;;
52956;SDS011;38819;42.692;23.342;2023-03-14T00:34:55;24.90;;;9.93;;
52956;SDS011;38819;42.692;23.342;2023-03-14T00:37:21;22.00;;;11.13;;
52956;SDS011;38819;42.692;23.342;2023-03-14T00:39:47;19.67;;;9.82;;
52956;SDS011;38819;42.692;23.342;2023-03-14T00:42:12;16.27;;;9.00;;
52956;SDS011;38819;42.692;23.342;2023-03-14T00:44:38;15.05;;;8.90;;
52956;SDS011;38819;42.692;23.342;2023-03-14T00:47:04;12.60;;;6.93;;
52956;SDS011;38819;42.692;23.342;2023-03-14T00:49:29;8.00;;;5.97;;
52956;SDS011;38819;42.692;23.342;2023-03-14T00:51:55;8.50;;;5.85;;
52956;SDS011;38819;42.692;23.342;2023-03-14T00:54:20;9.45;;;5.68;;
52956;SDS011;38819;42.692;23.342;2023-03-14T00:56:46;8.00;;;5.30;;
52956;SDS011;38819;42.692;23.342;2023-03-14T00:59:11;9.88;;;5.65;;
52956;SDS011;38819;42.692;23.342;2023-03-14T01:01:37;9.07;;;6.47;;
52956;SDS011;38819;42.692;23.342;2023-03-14T01:04:04;9.27;;;6.40;;
52956;SDS011;38819;42.692;23.342;2023-03-14T01:06:29;11.40;;;5.00;;
52956;SDS011;38819;42.692;23.342;2023-03-14T01:08:55;10.48;;;5.28;;
52956;SDS011;38819;42.692;23.342;2023-03-14T01:11:23;7.70;;;5.07;;
52956;SDS011;38819;42.692;23.342;2023-03-14T01:13:53;9.05;;;5.22;;
52956;SDS011;38819;42.692;23.342;2023-03-14T01:16:19;7.93;;;5.32;;
52956;SDS011;38819;42.692;23.342;2023-03-14T01:18:45;8.57;;;5.53;;
52956;SDS011;38819;42.692;23.342;2023-03-14T01:21:16;7.38;;;5.93;;
52956;SDS011;38819;42.692;23.342;2023-03-14T01:23:44;10.18;;;6.07;;
52956;SDS011;38819;42.692;23.342;2023-03-14T01:26:11;8.20;;;5.60;;
52956;SDS011;38819;42.692;23.342;2023-03-14T01:28:37;7.50;;;6.13;;
52956;SDS011;38819;42.692;23.342;2023-03-14T01:31:07;7.60;;;5.45;;
52956;SDS011;38819;42.692;23.342;2023-03-14T01:33:34;10.18;;;5.22;;
52956;SDS011;38819;42.692;23.342;2023-03-14T01:36:00;9.85;;;5.63;;
52956;SDS011;38819;42.692;23.342;2023-03-14T01:38:29;10.27;;;6.00;;
52956;SDS011;38819;42.692;23.342;2023-03-14T01:40:56;10.40;;;6.20;;
52956;SDS011;38819;42.692;23.342;2023-03-14T01:43:22;11.80;;;5.95;;
52956;SDS011;38819;42.692;23.342;2023-03-14T01:46:06;9.52;;;5.68;;
52956;SDS011;38819;42.692;23.342;2023-03-14T01:51:27;8.55;;;5.50;;
52956;SDS011;38819;42.692;23.342;2023-03-14T01:54:07;10.32;;;6.63;;
52956;SDS011;38819;42.692;23.342;2023-03-14T01:56:40;6.32;;;5.25;;
52956;SDS011;38819;42.692;23.342;2023-03-14T01:59:09;8.23;;;5.15;;
52956;SDS011;38819;42.692;23.342;2023-03-14T02:01:36;7.70;;;5.57;;
52956;SDS011;38819;42.692;23.342;2023-03-14T02:04:04;7.00;;;5.57;;
52956;SDS011;38819;42.692;23.342;2023-03-14T02:09:20;8.45;;;5.88;;
52956;SDS011;38819;42.692;23.342;2023-03-14T02:11:46;9.30;;;5.20;;
52956;SDS011;38819;42.692;23.342;2023-03-14T02:14:14;9.15;;;6.22;;
52956;SDS011;38819;42.692;23.342;2023-03-14T02:16:47;9.40;;;6.10;;
52956;SDS011;38819;42.692;23.342;2023-03-14T02:19:13;10.07;;;5.38;;
52956;SDS011;38819;42.692;23.342;2023-03-14T02:21:54;15.23;;;6.30;;
52956;SDS011;38819;42.692;23.342;2023-03-14T02:24:30;9.68;;;5.90;;
52956;SDS011;38819;42.692;23.342;2023-03-14T02:27:13;12.32;;;6.47;;
52956;SDS011;38819;42.692;23.342;2023-03-14T02:29:51;8.40;;;5.82;;
52956;SDS011;38819;42.692;23.342;2023-03-14T02:32:21;11.45;;;6.00;;
52956;SDS011;38819;42.692;23.342;2023-03-14T02:34:51;6.97;;;5.38;;
52956;SDS011;38819;42.692;23.342;2023-03-14T02:37:21;13.20;;;6.07;;
52956;SDS011;38819;42.692;23.342;2023-03-14T02:39:49;10.50;;;6.47;;
52956;SDS011;38819;42.692;23.342;2023-03-14T02:42:15;11.85;;;7.35;;
52956;SDS011;38819;42.692;23.342;2023-03-14T02:44:48;13.68;;;6.63;;
52956;SDS011;38819;42.692;23.342;2023-03-14T02:47:16;12.38;;;6.78;;
52956;SDS011;38819;42.692;23.342;2023-03-14T02:49:45;10.52;;;6.70;;
52956;SDS011;38819;42.692;23.342;2023-03-14T02:52:11;9.77;;;6.43;;
52956;SDS011;38819;42.692;23.342;2023-03-14T02:54:37;10.30;;;6.22;;
52956;SDS011;38819;42.692;23.342;2023-03-14T02:57:02;12.05;;;7.35;;
52956;SDS011;38819;42.692;23.342;2023-03-14T02:59:28;16.67;;;6.93;;
52956;SDS011;38819;42.692;23.342;2023-03-14T03:01:53;12.95;;;7.20;;
52956;SDS011;38819;42.692;23.342;2023-03-14T03:04:19;17.42;;;8.07;;
52956;SDS011;38819;42.692;23.342;2023-03-14T03:06:44;13.63;;;7.25;;
52956;SDS011;38819;42.692;23.342;2023-03-14T03:09:10;17.20;;;9.05;;
52956;SDS011;38819;42.692;23.342;2023-03-14T03:11:35;13.00;;;8.48;;
52956;SDS011;38819;42.692;23.342;2023-03-14T03:14:01;11.32;;;7.93;;
52956;SDS011;38819;42.692;23.342;2023-03-14T03:16:26;18.63;;;8.20;;
52956;SDS011;38819;42.692;23.342;2023-03-14T03:18:52;14.45;;;8.50;;
52956;SDS011;38819;42.692;23.342;2023-03-14T03:21:17;18.88;;;9.00;;
52956;SDS011;38819;42.692;23.342;2023-03-14T03:23:43;12.18;;;8.00;;
52956;SDS011;38819;42.692;23.342;2023-03-14T03:26:09;14.32;;;9.10;;
52956;SDS011;38819;42.692;23.342;2023-03-14T03:28:35;12.38;;;7.93;;
52956;SDS011;38819;42.692;23.342;2023-03-14T03:31:08;16.77;;;8.48;;
52956;SDS011;38819;42.692;23.342;2023-03-14T03:33:35;16.05;;;8.50;;
52956;SDS011;38819;42.692;23.342;2023-03-14T03:36:02;14.32;;;8.55;;
52956;SDS011;38819;42.692;23.342;2023-03-14T03:38:27;18.77;;;9.45;;
52956;SDS011;38819;42.692;23.342;2023-03-14T03:40:53;16.40;;;9.43;;
52956;SDS011;38819;42.692;23.342;2023-03-14T03:43:18;22.90;;;10.68;;
52956;SDS011;38819;42.692;23.342;2023-03-14T03:45:44;14.98;;;9.60;;
52956;SDS011;38819;42.692;23.342;2023-03-14T03:48:09;15.30;;;8.95;;
52956;SDS011;38819;42.692;23.342;2023-03-14T03:50:34;22.50;;;11.73;;
52956;SDS011;38819;42.692;23.342;2023-03-14T03:53:00;18.42;;;9.98;;
52956;SDS011;38819;42.692;23.342;2023-03-14T03:55:26;22.17;;;10.90;;
52956;SDS011;38819;42.692;23.342;2023-03-14T03:57:53;30.33;;;11.45;;
52956;SDS011;38819;42.692;23.342;2023-03-14T04:00:18;26.15;;;11.38;;
52956;SDS011;38819;42.692;23.342;2023-03-14T04:02:44;19.77;;;9.88;;
52956;SDS011;38819;42.692;23.342;2023-03-14T04:05:09;24.95;;;10.27;;
52956;SDS011;38819;42.692;23.342;2023-03-14T04:07:34;27.33;;;12.07;;
52956;SDS011;38819;42.692;23.342;2023-03-14T04:10:00;28.17;;;13.57;;
52956;SDS011;38819;42.692;23.342;2023-03-14T04:12:25;36.55;;;15.27;;
52956;SDS011;38819;42.692;23.342;2023-03-14T04:14:51;22.95;;;12.93;;
52956;SDS011;38819;42.692;23.342;2023-03-14T04:17:16;22.17;;;12.82;;
52956;SDS011;38819;42.692;23.342;2023-03-14T04:19:42;26.38;;;13.57;;
52956;SDS011;38819;42.692;23.342;2023-03-14T04:22:08;28.13;;;13.77;;
52956;SDS011;38819;42.692;23.342;2023-03-14T04:24:34;22.33;;;12.60;;
52956;SDS011;38819;42.692;23.342;2023-03-14T04:26:59;20.92;;;11.65;;
52956;SDS011;38819;42.692;23.342;2023-03-14T04:29:24;18.85;;;11.10;;
52956;SDS011;38819;42.692;23.342;2023-03-14T04:31:50;23.77;;;11.32;;
52956;SDS011;38819;42.692;23.342;2023-03-14T04:34:15;21.70;;;11.27;;
52956;SDS011;38819;42.692;23.342;2023-03-14T04:36:41;24.73;;;10.85;;
52956;SDS011;38819;42.692;23.342;2023-03-14T04:39:06;27.95;;;12.13;;
52956;SDS011;38819;42.692;23.342;2023-03-14T04:41:32;26.40;;;11.55;;
52956;SDS011;38819;42.692;23.342;2023-03-14T04:43:57;28.77;;;13.70;;
52956;SDS011;38819;42.692;23.342;2023-03-14T04:46:23;30.20;;;13.75;;
52956;SDS011;38819;42.692;23.342;2023-03-14T04:48:49;25.80;;;12.65;;
52956;SDS011;38819;42.692;23.342;2023-03-14T04:51:14;25.73;;;14.35;;
52956;SDS011;38819;42.692;23.342;2023-03-14T04:53:39;27.10;;;14.13;;
52956;SDS011;38819;42.692;23.342;2023-03-14T04:56:06;38.05;;;15.20;;
52956;SDS011;38819;42.692;23.342;2023-03-14T04:58:32;29.67;;;14.00;;
52956;SDS011;38819;42.692;23.342;2023-03-14T05:01:01;29.70;;;15.15;;
52956;SDS011;38819;42.692;23.342;2023-03-14T05:03:30;24.10;;;14.32;;
52956;SDS011;38819;42.692;23.342;2023-03-14T05:05:56;29.80;;;14.52;;
52956;SDS011;38819;42.692;23.342;2023-03-14T05:08:22;40.38;;;17.30;;
52956;SDS011;38819;42.692;23.342;2023-03-14T05:10:54;32.05;;;15.40;;
52956;SDS011;38819;42.692;23.342;2023-03-14T05:13:21;27.90;;;14.52;;
52956;SDS011;38819;42.692;23.342;2023-03-14T05:15:46;23.80;;;15.35;;
52956;SDS011;38819;42.692;23.342;2023-03-14T05:18:12;32.50;;;15.30;;
52956;SDS011;38819;42.692;23.342;2023-03-14T05:20:37;25.17;;;14.52;;
52956;SDS011;38819;42.692;23.342;2023-03-14T05:23:03;29.73;;;16.33;;
52956;SDS011;38819;42.692;23.342;2023-03-14T05:25:28;34.33;;;15.07;;
52956;SDS011;38819;42.692;23.342;2023-03-14T05:27:54;28.30;;;15.93;;
52956;SDS011;38819;42.692;23.342;2023-03-14T05:30:20;32.10;;;15.10;;
52956;SDS011;38819;42.692;23.342;2023-03-14T05:32:46;28.98;;;16.08;;
52956;SDS011;38819;42.692;23.342;2023-03-14T05:35:12;34.08;;;14.95;;
52956;SDS011;38819;42.692;23.342;2023-03-14T05:37:38;30.55;;;15.88;;
52956;SDS011;38819;42.692;23.342;2023-03-14T05:40:03;29.90;;;15.38;;
52956;SDS011;38819;42.692;23.342;2023-03-14T05:42:31;34.55;;;17.08;;
52956;SDS011;38819;42.692;23.342;2023-03-14T05:44:57;33.15;;;15.70;;
52956;SDS011;38819;42.692;23.342;2023-03-14T05:47:22;27.23;;;16.52;;
52956;SDS011;38819;42.692;23.342;2023-03-14T05:49:48;35.90;;;17.05;;
52956;SDS011;38819;42.692;23.342;2023-03-14T05:52:13;32.70;;;16.77;;
52956;SDS011;38819;42.692;23.342;2023-03-14T05:54:39;40.45;;;18.00;;
52956;SDS011;38819;42.692;23.342;2023-03-14T05:57:04;48.10;;;18.85;;
52956;SDS011;38819;42.692;23.342;2023-03-14T05:59:30;40.95;;;18.08;;
52956;SDS011;38819;42.692;23.342;2023-03-14T06:01:55;30.02;;;16.73;;
52956;SDS011;38819;42.692;23.342;2023-03-14T06:04:21;36.45;;;17.13;;
52956;SDS011;38819;42.692;23.342;2023-03-14T06:06:46;38.25;;;17.52;;
52956;SDS011;38819;42.692;23.342;2023-03-14T06:09:12;36.25;;;16.00;;
52956;SDS011;38819;42.692;23.342;2023-03-14T06:11:37;31.20;;;17.02;;
52956;SDS011;38819;42.692;23.342;2023-03-14T06:14:02;31.15;;;16.13;;
52956;SDS011;38819;42.692;23.342;2023-03-14T06:16:28;43.17;;;18.45;;
52956;SDS011;38819;42.692;23.342;2023-03-14T06:18:53;35.20;;;16.48;;
52956;SDS011;38819;42.692;23.342;2023-03-14T06:21:19;29.70;;;16.77;;
52956;SDS011;38819;42.692;23.342;2023-03-14T06:23:44;32.30;;;17.38;;
52956;SDS011;38819;42.692;23.342;2023-03-14T06:26:10;31.52;;;16.27;;
52956;SDS011;38819;42.692;23.342;2023-03-14T06:28:37;33.35;;;16.20;;
52956;SDS011;38819;42.692;23.342;2023-03-14T06:31:02;33.05;;;17.77;;
52956;SDS011;38819;42.692;23.342;2023-03-14T06:33:28;37.58;;;19.17;;
52956;SDS011;38819;42.692;23.342;2023-03-14T06:35:54;32.92;;;17.23;;
52956;SDS011;38819;42.692;23.342;2023-03-14T06:38:19;38.38;;;17.30;;
52956;SDS011;38819;42.692;23.342;2023-03-14T06:40:45;38.40;;;19.67;;
52956;SDS011;38819;42.692;23.342;2023-03-14T06:43:10;32.03;;;18.30;;
52956;SDS011;38819;42.692;23.342;2023-03-14T06:45:36;42.28;;;18.55;;
52956;SDS011;38819;42.692;23.342;2023-03-14T06:48:01;33.63;;;17.38;;
52956;SDS011;38819;42.692;23.342;2023-03-14T06:50:27;35.50;;;17.38;;
52956;SDS011;38819;42.692;23.342;2023-03-14T06:52:53;38.97;;;17.33;;
52956;SDS011;38819;42.692;23.342;2023-03-14T06:55:18;31.50;;;16.15;;
52956;SDS011;38819;42.692;23.342;2023-03-14T06:57:43;32.35;;;16.65;;
52956;SDS011;38819;42.692;23.342;2023-03-14T07:00:09;32.42;;;16.67;;
52956;SDS011;38819;42.692;23.342;2023-03-14T07:02:36;31.73;;;16.83;;
52956;SDS011;38819;42.692;23.342;2023-03-14T07:05:02;33.95;;;17.00;;
52956;SDS011;38819;42.692;23.342;2023-03-14T07:07:28;34.08;;;17.77;;
52956;SDS011;38819;42.692;23.342;2023-03-14T07:09:53;34.25;;;17.52;;
52956;SDS011;38819;42.692;23.342;2023-03-14T07:12:19;38.65;;;17.20;;
52956;SDS011;38819;42.692;23.342;2023-03-14T07:14:44;32.63;;;17.80;;
52956;SDS011;38819;42.692;23.342;2023-03-14T07:17:10;35.47;;;17.95;;
52956;SDS011;38819;42.692;23.342;2023-03-14T07:19:35;37.45;;;18.13;;
52956;SDS011;38819;42.692;23.342;2023-03-14T07:22:01;32.65;;;17.25;;
52956;SDS011;38819;42.692;23.342;2023-03-14T07:24:26;28.75;;;15.73;;
52956;SDS011;38819;42.692;23.342;2023-03-14T07:26:52;24.48;;;13.38;;
52956;SDS011;38819;42.692;23.342;2023-03-14T07:29:17;20.80;;;12.60;;
52956;SDS011;38819;42.692;23.342;2023-03-14T07:31:43;19.30;;;11.50;;
52956;SDS011;38819;42.692;23.342;2023-03-14T07:34:08;25.35;;;12.18;;
52956;SDS011;38819;42.692;23.342;2023-03-14T07:36:34;20.90;;;12.18;;
52956;SDS011;38819;42.692;23.342;2023-03-14T07:39:00;20.45;;;12.75;;
52956;SDS011;38819;42.692;23.342;2023-03-14T07:41:25;18.48;;;11.98;;
52956;SDS011;38819;42.692;23.342;2023-03-14T07:43:50;21.92;;;12.88;;
52956;SDS011;38819;42.692;23.342;2023-03-14T07:46:16;29.38;;;13.20;;
52956;SDS011;38819;42.692;23.342;2023-03-14T07:48:42;26.27;;;12.40;;
52956;SDS011;38819;42.692;23.342;2023-03-14T07:51:08;29.15;;;11.80;;
52956;SDS011;38819;42.692;23.342;2023-03-14T07:53:33;18.48;;;11.95;;
52956;SDS011;38819;42.692;23.342;2023-03-14T07:55:59;24.75;;;11.75;;
52956;SDS011;38819;42.692;23.342;2023-03-14T07:58:24;21.63;;;11.63;;
52956;SDS011;38819;42.692;23.342;2023-03-14T08:00:50;23.58;;;12.10;;
52956;SDS011;38819;42.692;23.342;2023-03-14T08:03:16;19.08;;;9.98;;
52956;SDS011;38819;42.692;23.342;2023-03-14T08:05:43;17.45;;;9.93;;
52956;SDS011;38819;42.692;23.342;2023-03-14T08:08:11;18.23;;;10.52;;
52956;SDS011;38819;42.692;23.342;2023-03-14T08:10:37;24.27;;;11.68;;
52956;SDS011;38819;42.692;23.342;2023-03-14T08:13:02;16.25;;;9.65;;
52956;SDS011;38819;42.692;23.342;2023-03-14T08:15:28;19.77;;;9.80;;
52956;SDS011;38819;42.692;23.342;2023-03-14T08:17:54;15.07;;;9.65;;
52956;SDS011;38819;42.692;23.342;2023-03-14T08:20:20;16.77;;;10.00;;
52956;SDS011;38819;42.692;23.342;2023-03-14T08:22:48;15.88;;;10.00;;
52956;SDS011;38819;42.692;23.342;2023-03-14T08:25:14;13.95;;;9.38;;
52956;SDS011;38819;42.692;23.342;2023-03-14T08:27:40;14.63;;;9.30;;
52956;SDS011;38819;42.692;23.342;2023-03-14T08:30:07;16.38;;;9.73;;
52956;SDS011;38819;42.692;23.342;2023-03-14T08:32:35;11.38;;;8.15;;
52956;SDS011;38819;42.692;23.342;2023-03-14T08:35:01;14.88;;;8.35;;
52956;SDS011;38819;42.692;23.342;2023-03-14T08:37:26;12.05;;;8.02;;
52956;SDS011;38819;42.692;23.342;2023-03-14T08:39:52;12.57;;;8.02;;
52956;SDS011;38819;42.692;23.342;2023-03-14T08:42:18;14.75;;;8.05;;
52956;SDS011;38819;42.692;23.342;2023-03-14T08:44:44;18.35;;;7.90;;
52956;SDS011;38819;42.692;23.342;2023-03-14T08:47:09;11.15;;;7.88;;
52956;SDS011;38819;42.692;23.342;2023-03-14T08:49:35;18.38;;;7.72;;
52956;SDS011;38819;42.692;23.342;2023-03-14T08:52:01;12.15;;;7.93;;
52956;SDS011;38819;42.692;23.342;2023-03-14T08:56:54;11.95;;;7.25;;
52956;SDS011;38819;42.692;23.342;2023-03-14T08:59:19;11.65;;;6.65;;
52956;SDS011;38819;42.692;23.342;2023-03-14T09:01:45;14.48;;;6.53;;
52956;SDS011;38819;42.692;23.342;2023-03-14T09:04:10;12.15;;;6.47;;
52956;SDS011;38819;42.692;23.342;2023-03-14T09:06:35;9.55;;;6.63;;
52956;SDS011;38819;42.692;23.342;2023-03-14T09:09:01;11.63;;;6.00;;
52956;SDS011;38819;42.692;23.342;2023-03-14T09:11:26;15.38;;;5.97;;
52956;SDS011;38819;42.692;23.342;2023-03-14T09:13:52;12.93;;;6.35;;
52956;SDS011;38819;42.692;23.342;2023-03-14T09:16:17;10.43;;;6.32;;
52956;SDS011;38819;42.692;23.342;2023-03-14T09:18:43;11.23;;;7.35;;
52956;SDS011;38819;42.692;23.342;2023-03-14T09:21:08;10.35;;;6.65;;
52956;SDS011;38819;42.692;23.342;2023-03-14T09:23:34;13.15;;;6.90;;
52956;SDS011;38819;42.692;23.342;2023-03-14T09:25:59;17.30;;;6.80;;
52956;SDS011;38819;42.692;23.342;2023-03-14T09:28:25;8.75;;;6.57;;
52956;SDS011;38819;42.692;23.342;2023-03-14T09:30:51;15.38;;;7.70;;
52956;SDS011;38819;42.692;23.342;2023-03-14T09:33:16;14.13;;;6.85;;
52956;SDS011;38819;42.692;23.342;2023-03-14T09:35:42;15.23;;;7.15;;
52956;SDS011;38819;42.692;23.342;2023-03-14T09:38:08;10.32;;;7.25;;
52956;SDS011;38819;42.692;23.342;2023-03-14T09:40:34;9.95;;;6.65;;
52956;SDS011;38819;42.692;23.342;2023-03-14T09:43:01;15.95;;;7.82;;
52956;SDS011;38819;42.692;23.342;2023-03-14T09:45:28;11.38;;;6.22;;
52956;SDS011;38819;42.692;23.342;2023-03-14T09:47:57;14.13;;;6.43;;
52956;SDS011;38819;42.692;23.342;2023-03-14T09:50:23;10.05;;;6.00;;
52956;SDS011;38819;42.692;23.342;2023-03-14T09:52:58;11.65;;;6.53;;
52956;SDS011;38819;42.692;23.342;2023-03-14T09:55:28;12.45;;;6.28;;
52956;SDS011;38819;42.692;23.342;2023-03-14T09:57:55;19.83;;;10.27;;
52956;SDS011;38819;42.692;23.342;2023-03-14T10:00:26;16.25;;;7.03;;
52956;SDS011;38819;42.692;23.342;2023-03-14T10:02:55;14.50;;;6.55;;
52956;SDS011;38819;42.692;23.342;2023-03-14T10:05:25;12.27;;;6.63;;
52956;SDS011;38819;42.692;23.342;2023-03-14T10:07:54;10.27;;;5.82;;
52956;SDS011;38819;42.692;23.342;2023-03-14T10:10:21;11.35;;;6.68;;
52956;SDS011;38819;42.692;23.342;2023-03-14T10:12:56;8.80;;;6.18;;
52956;SDS011;38819;42.692;23.342;2023-03-14T10:15:40;11.85;;;6.72;;
52956;SDS011;38819;42.692;23.342;2023-03-14T10:18:13;13.38;;;6.80;;
52956;SDS011;38819;42.692;23.342;2023-03-14T10:20:40;15.05;;;7.70;;
52956;SDS011;38819;42.692;23.342;2023-03-14T10:25:41;10.90;;;5.88;;
52956;SDS011;38819;42.692;23.342;2023-03-14T10:28:25;11.20;;;6.53;;
52956;SDS011;38819;42.692;23.342;2023-03-14T10:30:53;15.65;;;6.78;;
52956;SDS011;38819;42.692;23.342;2023-03-14T10:33:26;14.68;;;6.25;;
52956;SDS011;38819;42.692;23.342;2023-03-14T10:35:57;8.82;;;5.78;;
52956;SDS011;38819;42.692;23.342;2023-03-14T10:38:26;9.35;;;5.63;;
52956;SDS011;38819;42.692;23.342;2023-03-14T10:40:54;8.75;;;5.18;;
52956;SDS011;38819;42.692;23.342;2023-03-14T10:43:56;6.47;;;5.05;;
52956;SDS011;38819;42.692;23.342;2023-03-14T10:46:15;7.80;;;5.05;;
52956;SDS011;38819;42.692;23.342;2023-03-14T10:48:42;9.57;;;5.07;;
52956;SDS011;38819;42.692;23.342;2023-03-14T10:53:47;7.78;;;4.10;;
52956;SDS011;38819;42.692;23.342;2023-03-14T10:56:35;8.13;;;4.95;;
52956;SDS011;38819;42.692;23.342;2023-03-14T10:59:02;7.28;;;3.97;;
52956;SDS011;38819;42.692;23.342;2023-03-14T11:18:53;9.45;;;4.53;;
52956;SDS011;38819;42.692;23.342;2023-03-14T11:27:03;10.65;;;3.83;;
52956;SDS011;38819;42.692;23.342;2023-03-14T11:29:55;5.38;;;3.67;;
52956;SDS011;38819;42.692;23.342;2023-03-14T11:32:38;8.00;;;3.70;;
52956;SDS011;38819;42.692;23.342;2023-03-14T11:35:24;8.00;;;3.33;;
52956;SDS011;38819;42.692;23.342;2023-03-14T11:38:37;4.18;;;3.08;;
52956;SDS011;38819;42.692;23.342;2023-03-14T11:46:46;6.03;;;3.60;;
52956;SDS011;38819;42.692;23.342;2023-03-14T11:49:26;4.78;;;3.20;;
52956;SDS011;38819;42.692;23.342;2023-03-14T11:52:17;3.08;;;2.78;;
52956;SDS011;38819;42.692;23.342;2023-03-14T11:55:02;2.97;;;2.63;;
52956;SDS011;38819;42.692;23.342;2023-03-14T11:57:35;6.80;;;3.05;;
52956;SDS011;38819;42.692;23.342;2023-03-14T12:10:18;3.70;;;2.30;;
52956;SDS011;38819;42.692;23.342;2023-03-14T12:12:44;3.08;;;2.22;;
52956;SDS011;38819;42.692;23.342;2023-03-14T12:15:15;3.38;;;1.88;;
52956;SDS011;38819;42.692;23.342;2023-03-14T12:17:45;3.50;;;2.47;;
52956;SDS011;38819;42.692;23.342;2023-03-14T12:25:15;4.50;;;2.30;;
52956;SDS011;38819;42.692;23.342;2023-03-14T12:27:46;2.50;;;1.83;;
52956;SDS011;38819;42.692;23.342;2023-03-14T12:30:29;4.28;;;1.98;;
52956;SDS011;38819;42.692;23.342;2023-03-14T12:35:38;7.75;;;2.42;;
52956;SDS011;38819;42.692;23.342;2023-03-14T12:41:01;3.15;;;2.15;;
52956;SDS011;38819;42.692;23.342;2023-03-14T12:43:46;2.35;;;1.92;;
52956;SDS011;38819;42.692;23.342;2023-03-14T12:51:38;1.90;;;1.77;;
52956;SDS011;38819;42.692;23.342;2023-03-14T12:59:27;5.53;;;2.10;;
52956;SDS011;38819;42.692;23.342;2023-03-14T13:04:45;4.70;;;2.03;;
52956;SDS011;38819;42.692;23.342;2023-03-14T13:07:15;5.25;;;1.90;;
52956;SDS011;38819;42.692;23.342;2023-03-14T13:09:55;5.68;;;2.20;;
52956;SDS011;38819;42.692;23.342;2023-03-14T13:12:28;3.00;;;1.80;;
52956;SDS011;38819;42.692;23.342;2023-03-14T13:15:00;7.63;;;2.03;;
52956;SDS011;38819;42.692;23.342;2023-03-14T13:17:30;2.65;;;1.85;;
52956;SDS011;38819;42.692;23.342;2023-03-14T13:19:59;2.70;;;1.45;;
52956;SDS011;38819;42.692;23.342;2023-03-14T13:22:30;2.28;;;1.92;;
52956;SDS011;38819;42.692;23.342;2023-03-14T13:24:59;3.55;;;2.03;;
52956;SDS011;38819;42.692;23.342;2023-03-14T13:27:30;5.53;;;2.15;;
52956;SDS011;38819;42.692;23.342;2023-03-14T13:29:58;7.50;;;1.42;;
52956;SDS011;38819;42.692;23.342;2023-03-14T13:32:27;2.15;;;1.77;;
52956;SDS011;38819;42.692;23.342;2023-03-14T13:34:57;1.88;;;1.70;;
52956;SDS011;38819;42.692;23.342;2023-03-14T13:37:23;5.28;;;2.05;;
52956;SDS011;38819;42.692;23.342;2023-03-14T13:39:55;5.20;;;1.67;;
52956;SDS011;38819;42.692;23.342;2023-03-14T13:42:27;3.75;;;1.80;;
52956;SDS011;38819;42.692;23.342;2023-03-14T13:44:55;2.95;;;1.50;;
52956;SDS011;38819;42.692;23.342;2023-03-14T13:47:23;4.90;;;2.83;;
52956;SDS011;38819;42.692;23.342;2023-03-14T13:49:50;9.20;;;2.00;;
52956;SDS011;38819;42.692;23.342;2023-03-14T13:52:30;27.83;;;13.77;;
52956;SDS011;38819;42.692;23.342;2023-03-14T13:55:05;5.57;;;2.42;;
52956;SDS011;38819;42.692;23.342;2023-03-14T13:57:45;3.15;;;2.22;;
52956;SDS011;38819;42.692;23.342;2023-03-14T14:00:19;5.25;;;1.50;;
52956;SDS011;38819;42.692;23.342;2023-03-14T14:02:52;2.63;;;2.00;;
52956;SDS011;38819;42.692;23.342;2023-03-14T14:05:20;7.30;;;1.92;;
52956;SDS011;38819;42.692;23.342;2023-03-14T14:07:46;2.05;;;1.85;;
52956;SDS011;38819;42.692;23.342;2023-03-14T14:10:12;4.75;;;2.35;;
52956;SDS011;38819;42.692;23.342;2023-03-14T14:15:09;4.05;;;2.45;;
52956;SDS011;38819;42.692;23.342;2023-03-14T14:17:40;5.32;;;1.98;;
52956;SDS011;38819;42.692;23.342;2023-03-14T14:20:29;2.70;;;1.83;;
52956;SDS011;38819;42.692;23.342;2023-03-14T14:23:03;4.60;;;2.10;;
52956;SDS011;38819;42.692;23.342;2023-03-14T14:25:30;4.80;;;2.17;;
52956;SDS011;38819;42.692;23.342;2023-03-14T14:27:56;4.80;;;2.10;;
52956;SDS011;38819;42.692;23.342;2023-03-14T14:32:52;5.68;;;2.05;;
52956;SDS011;38819;42.692;23.342;2023-03-14T14:35:25;12.60;;;1.92;;
52956;SDS011;38819;42.692;23.342;2023-03-14T14:37:55;7.40;;;1.75;;
52956;SDS011;38819;42.692;23.342;2023-03-14T14:40:22;5.65;;;2.10;;
52956;SDS011;38819;42.692;23.342;2023-03-14T14:42:49;2.83;;;1.90;;
52956;SDS011;38819;42.692;23.342;2023-03-14T14:45:24;6.93;;;1.90;;
52956;SDS011;38819;42.692;23.342;2023-03-14T14:50:29;5.60;;;1.98;;
52956;SDS011;38819;42.692;23.342;2023-03-14T14:52:57;4.35;;;2.15;;
52956;SDS011;38819;42.692;23.342;2023-03-14T14:55:28;6.00;;;2.30;;
52956;SDS011;38819;42.692;23.342;2023-03-14T14:57:56;3.75;;;2.10;;
52956;SDS011;38819;42.692;23.342;2023-03-14T15:00:23;4.22;;;2.00;;
52956;SDS011;38819;42.692;23.342;2023-03-14T15:03:11;7.10;;;2.03;;
52956;SDS011;38819;42.692;23.342;2023-03-14T15:05:40;7.25;;;2.25;;
52956;SDS011;38819;42.692;23.342;2023-03-14T15:08:11;10.52;;;2.53;;
52956;SDS011;38819;42.692;23.342;2023-03-14T15:10:37;3.78;;;1.92;;
52956;SDS011;38819;42.692;23.342;2023-03-14T15:13:03;2.53;;;1.92;;
52956;SDS011;38819;42.692;23.342;2023-03-14T15:15:28;7.20;;;2.17;;
52956;SDS011;38819;42.692;23.342;2023-03-14T15:17:54;3.55;;;2.22;;
52956;SDS011;38819;42.692;23.342;2023-03-14T15:20:19;8.50;;;2.47;;
52956;SDS011;38819;42.692;23.342;2023-03-14T15:22:49;7.78;;;2.50;;
52956;SDS011;38819;42.692;23.342;2023-03-14T15:25:15;6.78;;;2.40;;
52956;SDS011;38819;42.692;23.342;2023-03-14T15:27:41;6.28;;;2.53;;
52956;SDS011;38819;42.692;23.342;2023-03-14T15:30:16;6.38;;;2.72;;
52956;SDS011;38819;42.692;23.342;2023-03-14T15:32:42;9.32;;;2.88;;
52956;SDS011;38819;42.692;23.342;2023-03-14T15:35:08;15.60;;;2.90;;
52956;SDS011;38819;42.692;23.342;2023-03-14T15:37:34;7.77;;;3.07;;
52956;SDS011;38819;42.692;23.342;2023-03-14T15:40:03;5.20;;;2.85;;
52956;SDS011;38819;42.692;23.342;2023-03-14T15:42:36;14.77;;;3.25;;
52956;SDS011;38819;42.692;23.342;2023-03-14T15:45:02;8.10;;;3.97;;
52956;SDS011;38819;42.692;23.342;2023-03-14T15:47:28;10.15;;;3.67;;
52956;SDS011;38819;42.692;23.342;2023-03-14T15:49:53;5.47;;;3.60;;